sensor_id;sensor_type;location;lat;lon;timestamp;pressure;altitude;pressure_sealevel;temperature;humidity
15260;BME280;34462;51.368;12.364;2024-02-14T00:01:13;19891.06;;;-141.84;78.31
15260;BME280;34462;51.368;12.364;2024-02-14T00:03:42;20029.28;;;-141.84;78.45
15260;BME280;34462;51.368;12.364;2024-02-14T00:06:10;21043.59;;;-141.84;78.89
15260;BME280;34462;51.368;12.364;2024-02-14T00:08:40;22072.44;;;-141.84;79.79
15260;BME280;34462;51.368;12.364;2024-02-14T00:11:10;23795.22;;;-141.84;80.42
15260;BME280;34462;51.368;12.364;2024-02-14T00:13:38;22414.09;;;-141.84;79.85
15260;BME280;34462;51.368;12.364;2024-02-14T00:16:06;24189.94;;;-141.84;80.39
15260;BME280;34462;51.368;12.364;2024-02-14T00:18:35;22678.47;;;-141.84;80.00
15260;BME280;34462;51.368;12.364;2024-02-14T00:21:04;21549.84;;;-141.84;79.45
15260;BME280;34462;51.368;12.364;2024-02-14T00:23:32;20112.59;;;-141.84;78.02
15260;BME280;34462;51.368;12.364;2024-02-14T00:26:01;18844.53;;;-141.84;75.98
15260;BME280;34462;51.368;12.364;2024-02-14T00:28:30;18389.41;;;-141.84;74.57
15260;BME280;34462;51.368;12.364;2024-02-14T00:30:58;18346.75;;;-141.84;74.08
15260;BME280;34462;51.368;12.364;2024-02-14T00:33:27;18434.13;;;-141.84;74.45
15260;BME280;34462;51.368;12.364;2024-02-14T00:35:55;18533.66;;;-141.84;75.19
15260;BME280;34462;51.368;12.364;2024-02-14T00:38:24;18385.34;;;-141.84;74.29
15260;BME280;34462;51.368;12.364;2024-02-14T00:40:52;18318.31;;;-141.84;73.13
15260;BME280;34462;51.368;12.364;2024-02-14T00:43:20;18265.50;;;-141.84;72.91
15260;BME280;34462;51.368;12.364;2024-02-14T00:45:50;18291.91;;;-141.84;73.01
15260;BME280;34462;51.368;12.364;2024-02-14T00:48:22;18371.13;;;-141.84;74.11
15260;BME280;34462;51.368;12.364;2024-02-14T00:50:50;18287.84;;;-141.84;72.71
15260;BME280;34462;51.368;12.364;2024-02-14T00:53:19;18295.97;;;-141.84;73.17
15260;BME280;34462;51.368;12.364;2024-02-14T00:55:47;18367.06;;;-141.84;73.79
15260;BME280;34462;51.368;12.364;2024-02-14T00:58:15;18308.16;;;-141.84;73.25
15260;BME280;34462;51.368;12.364;2024-02-14T01:00:46;18204.53;;;-141.84;71.57
15260;BME280;34462;51.368;12.364;2024-02-14T01:03:16;18346.75;;;-141.84;73.89
15260;BME280;34462;51.368;12.364;2024-02-14T01:05:45;18302.06;;;-141.84;72.45
15260;BME280;34462;51.368;12.364;2024-02-14T01:08:13;18401.59;;;-141.84;74.03
15260;BME280;34462;51.368;12.364;2024-02-14T01:10:43;18255.34;;;-141.84;71.92
15260;BME280;34462;51.368;12.364;2024-02-14T01:13:13;18289.88;;;-141.84;72.50
15260;BME280;34462;51.368;12.364;2024-02-14T01:15:42;18334.56;;;-141.84;72.40
15260;BME280;34462;51.368;12.364;2024-02-14T01:18:11;18306.13;;;-141.84;73.27
15260;BME280;34462;51.368;12.364;2024-02-14T01:20:40;18259.41;;;-141.84;72.42
15260;BME280;34462;51.368;12.364;2024-02-14T01:23:09;18255.34;;;-141.84;72.29
15260;BME280;34462;51.368;12.364;2024-02-14T01:25:38;18397.53;;;-141.84;73.68
15260;BME280;34462;51.368;12.364;2024-02-14T01:28:06;18358.94;;;-141.84;73.20
15260;BME280;34462;51.368;12.364;2024-02-14T01:30:35;18456.47;;;-141.84;74.45
15260;BME280;34462;51.368;12.364;2024-02-14T01:33:04;18395.50;;;-141.84;73.70
15260;BME280;34462;51.368;12.364;2024-02-14T01:35:33;18371.13;;;-141.84;73.79
15260;BME280;34462;51.368;12.364;2024-02-14T01:38:03;18358.94;;;-141.84;72.89
15260;BME280;34462;51.368;12.364;2024-02-14T01:40:31;18393.47;;;-141.84;73.85
15260;BME280;34462;51.368;12.364;2024-02-14T01:43:05;18716.53;;;-141.84;75.79
15260;BME280;34462;51.368;12.364;2024-02-14T01:45:33;18558.03;;;-141.84;75.10
15260;BME280;34462;51.368;12.364;2024-02-14T01:48:02;18491.00;;;-141.84;74.72
15260;BME280;34462;51.368;12.364;2024-02-14T01:50:34;18838.44;;;-141.84;76.12
15260;BME280;34462;51.368;12.364;2024-02-14T01:53:05;18639.31;;;-141.84;75.70
15260;BME280;34462;51.368;12.364;2024-02-14T01:55:34;18444.28;;;-141.84;74.31
15260;BME280;34462;51.368;12.364;2024-02-14T01:58:03;18608.84;;;-141.84;75.21
15260;BME280;34462;51.368;12.364;2024-02-14T02:00:33;18728.72;;;-141.84;75.44
15260;BME280;34462;51.368;12.364;2024-02-14T02:03:03;18442.25;;;-141.84;74.37
15260;BME280;34462;51.368;12.364;2024-02-14T02:05:32;18326.44;;;-141.84;73.23
15260;BME280;34462;51.368;12.364;2024-02-14T02:08:01;18716.53;;;-141.84;76.10
15260;BME280;34462;51.368;12.364;2024-02-14T02:10:31;18980.66;;;-141.84;76.45
15260;BME280;34462;51.368;12.364;2024-02-14T02:13:00;18523.50;;;-141.84;74.76
15260;BME280;34462;51.368;12.364;2024-02-14T02:15:28;18428.03;;;-141.84;74.29
15260;BME280;34462;51.368;12.364;2024-02-14T02:17:59;18913.59;;;-141.84;76.46
15260;BME280;34462;51.368;12.364;2024-02-14T02:20:28;18580.41;;;-141.84;75.18
15260;BME280;34462;51.368;12.364;2024-02-14T02:22:58;19090.38;;;-141.84;77.05
15260;BME280;34462;51.368;12.364;2024-02-14T02:25:26;19602.47;;;-141.84;77.50
15260;BME280;34462;51.368;12.364;2024-02-14T02:27:55;19139.16;;;-141.84;77.16
15260;BME280;34462;51.368;12.364;2024-02-14T02:30:25;18872.97;;;-141.84;76.21
15260;BME280;34462;51.368;12.364;2024-02-14T02:32:54;18848.59;;;-141.84;76.14
15260;BME280;34462;51.368;12.364;2024-02-14T02:35:23;18848.59;;;-141.84;76.30
15260;BME280;34462;51.368;12.364;2024-02-14T02:37:52;19460.22;;;-141.84;77.90
15260;BME280;34462;51.368;12.364;2024-02-14T02:40:22;23866.44;;;-141.84;80.77
15260;BME280;34462;51.368;12.364;2024-02-14T02:42:51;26919.34;;;-141.84;81.27
15260;BME280;34462;51.368;12.364;2024-02-14T02:45:19;23638.59;;;-141.84;79.67
15260;BME280;34462;51.368;12.364;2024-02-14T02:47:47;20401.22;;;-141.84;78.37
15260;BME280;34462;51.368;12.364;2024-02-14T02:50:18;19443.97;;;-141.84;77.66
15260;BME280;34462;51.368;12.364;2024-02-14T02:52:48;19484.59;;;-141.84;77.84
15260;BME280;34462;51.368;12.364;2024-02-14T02:55:17;22605.25;;;-141.84;80.30
15260;BME280;34462;51.368;12.364;2024-02-14T02:57:47;21952.47;;;-141.84;79.24
15260;BME280;34462;51.368;12.364;2024-02-14T03:00:16;19224.50;;;-141.84;77.16
15260;BME280;34462;51.368;12.364;2024-02-14T03:02:49;19529.31;;;-141.84;77.76
15260;BME280;34462;51.368;12.364;2024-02-14T03:05:17;20785.44;;;-141.84;79.04
15260;BME280;34462;51.368;12.364;2024-02-14T03:07:46;21285.53;;;-141.84;79.15
15260;BME280;34462;51.368;12.364;2024-02-14T03:10:19;22448.66;;;-141.84;79.51
15260;BME280;34462;51.368;12.364;2024-02-14T03:12:51;18927.84;;;-141.84;76.29
15260;BME280;34462;51.368;12.364;2024-02-14T03:15:20;19313.91;;;-141.84;77.19
15260;BME280;34462;51.368;12.364;2024-02-14T03:17:48;18887.19;;;-141.84;76.42
15260;BME280;34462;51.368;12.364;2024-02-14T03:20:17;19326.09;;;-141.84;77.22
15260;BME280;34462;51.368;12.364;2024-02-14T03:22:47;19076.16;;;-141.84;76.83
15260;BME280;34462;51.368;12.364;2024-02-14T03:25:18;19574.03;;;-141.84;77.75
15260;BME280;34462;51.368;12.364;2024-02-14T03:27:46;20130.91;;;-141.84;78.25
15260;BME280;34462;51.368;12.364;2024-02-14T03:30:20;18742.94;;;-141.84;76.03
15260;BME280;34462;51.368;12.364;2024-02-14T03:32:49;18582.44;;;-141.84;75.38
15260;BME280;34462;51.368;12.364;2024-02-14T03:35:22;19155.41;;;-141.84;77.10
15260;BME280;34462;51.368;12.364;2024-02-14T03:37:50;18860.78;;;-141.84;76.55
15260;BME280;34462;51.368;12.364;2024-02-14T03:40:20;20100.41;;;-141.84;78.38
15260;BME280;34462;51.368;12.364;2024-02-14T03:42:49;19086.31;;;-141.84;76.49
15260;BME280;34462;51.368;12.364;2024-02-14T03:45:20;18430.06;;;-141.84;74.11
15260;BME280;34462;51.368;12.364;2024-02-14T03:47:48;18377.22;;;-141.84;73.94
15260;BME280;34462;51.368;12.364;2024-02-14T03:50:16;18375.19;;;-141.84;73.33
15260;BME280;34462;51.368;12.364;2024-02-14T03:52:46;18505.22;;;-141.84;74.48
15260;BME280;34462;51.368;12.364;2024-02-14T03:55:15;18387.38;;;-141.84;73.66
15260;BME280;34462;51.368;12.364;2024-02-14T03:57:46;18377.22;;;-141.84;73.44
15260;BME280;34462;51.368;12.364;2024-02-14T04:00:15;18401.59;;;-141.84;73.57
15260;BME280;34462;51.368;12.364;2024-02-14T04:02:48;18287.84;;;-141.84;72.46
15260;BME280;34462;51.368;12.364;2024-02-14T04:05:17;18253.31;;;-141.84;71.21
15260;BME280;34462;51.368;12.364;2024-02-14T04:07:45;18241.13;;;-141.84;71.16
15260;BME280;34462;51.368;12.364;2024-02-14T04:10:19;18214.69;;;-141.84;69.55
15260;BME280;34462;51.368;12.364;2024-02-14T04:12:47;18228.91;;;-141.84;70.62
15260;BME280;34462;51.368;12.364;2024-02-14T04:15:15;18289.88;;;-141.84;71.04
15260;BME280;34462;51.368;12.364;2024-02-14T04:17:44;18220.78;;;-141.84;69.92
15260;BME280;34462;51.368;12.364;2024-02-14T04:20:14;18228.91;;;-141.84;69.90
15260;BME280;34462;51.368;12.364;2024-02-14T04:22:42;18220.78;;;-141.84;68.82
15260;BME280;34462;51.368;12.364;2024-02-14T04:25:11;18226.88;;;-141.84;69.38
15260;BME280;34462;51.368;12.364;2024-02-14T04:27:42;18212.66;;;-141.84;69.22
15260;BME280;34462;51.368;12.364;2024-02-14T04:30:11;18222.81;;;-141.84;69.10
15260;BME280;34462;51.368;12.364;2024-02-14T04:32:40;18202.50;;;-141.84;68.07
15260;BME280;34462;51.368;12.364;2024-02-14T04:35:10;18204.53;;;-141.84;68.11
15260;BME280;34462;51.368;12.364;2024-02-14T04:37:41;18188.28;;;-141.84;67.14
15260;BME280;34462;51.368;12.364;2024-02-14T04:40:13;18200.47;;;-141.84;66.85
15260;BME280;34462;51.368;12.364;2024-02-14T04:42:42;18216.72;;;-141.84;66.87
15260;BME280;34462;51.368;12.364;2024-02-14T04:45:10;18206.56;;;-141.84;67.49
15260;BME280;34462;51.368;12.364;2024-02-14T04:47:39;18174.06;;;-141.84;67.46
15260;BME280;34462;51.368;12.364;2024-02-14T04:50:08;18194.38;;;-141.84;67.68
15260;BME280;34462;51.368;12.364;2024-02-14T04:52:37;18257.38;;;-141.84;68.96
15260;BME280;34462;51.368;12.364;2024-02-14T04:55:08;18261.44;;;-141.84;70.24
15260;BME280;34462;51.368;12.364;2024-02-14T04:57:36;18255.34;;;-141.84;69.83
15260;BME280;34462;51.368;12.364;2024-02-14T05:00:07;18235.00;;;-141.84;68.58
15260;BME280;34462;51.368;12.364;2024-02-14T05:02:36;18232.97;;;-141.84;67.50
15260;BME280;34462;51.368;12.364;2024-02-14T05:05:05;18228.91;;;-141.84;67.00
15260;BME280;34462;51.368;12.364;2024-02-14T05:07:35;18239.09;;;-141.84;65.96
15260;BME280;34462;51.368;12.364;2024-02-14T05:10:07;18206.56;;;-141.84;66.66
15260;BME280;34462;51.368;12.364;2024-02-14T05:12:35;18208.59;;;-141.84;66.66
15260;BME280;34462;51.368;12.364;2024-02-14T05:15:05;18228.91;;;-141.84;65.59
15260;BME280;34462;51.368;12.364;2024-02-14T05:17:33;18204.53;;;-141.84;65.77
15260;BME280;34462;51.368;12.364;2024-02-14T05:20:03;18220.78;;;-141.84;66.19
15260;BME280;34462;51.368;12.364;2024-02-14T05:22:36;18245.19;;;-141.84;66.80
15260;BME280;34462;51.368;12.364;2024-02-14T05:25:08;18239.09;;;-141.84;66.04
15260;BME280;34462;51.368;12.364;2024-02-14T05:27:38;18241.13;;;-141.84;66.03
15260;BME280;34462;51.368;12.364;2024-02-14T05:30:07;18249.25;;;-141.84;65.21
15260;BME280;34462;51.368;12.364;2024-02-14T05:32:36;18200.47;;;-141.84;64.75
15260;BME280;34462;51.368;12.364;2024-02-14T05:35:07;18208.59;;;-141.84;64.43
15260;BME280;34462;51.368;12.364;2024-02-14T05:37:36;18245.19;;;-141.84;65.12
15260;BME280;34462;51.368;12.364;2024-02-14T05:40:11;18243.16;;;-141.84;64.05
15260;BME280;34462;51.368;12.364;2024-02-14T05:42:39;18273.63;;;-141.84;65.09
15260;BME280;34462;51.368;12.364;2024-02-14T05:45:09;18218.75;;;-141.84;65.67
15260;BME280;34462;51.368;12.364;2024-02-14T05:47:38;18249.25;;;-141.84;64.01
15260;BME280;34462;51.368;12.364;2024-02-14T05:50:07;18245.19;;;-141.84;63.94
15260;BME280;34462;51.368;12.364;2024-02-14T05:52:38;18265.50;;;-141.84;64.49
15260;BME280;34462;51.368;12.364;2024-02-14T05:55:07;18247.22;;;-141.84;64.07
15260;BME280;34462;51.368;12.364;2024-02-14T05:57:37;18235.00;;;-141.84;63.47
15260;BME280;34462;51.368;12.364;2024-02-14T06:00:07;18259.41;;;-141.84;64.90
15260;BME280;34462;51.368;12.364;2024-02-14T06:02:38;18249.25;;;-141.84;64.83
15260;BME280;34462;51.368;12.364;2024-02-14T06:05:08;18253.31;;;-141.84;64.50
15260;BME280;34462;51.368;12.364;2024-02-14T06:07:38;18269.56;;;-141.84;66.28
15260;BME280;34462;51.368;12.364;2024-02-14T06:10:08;18277.69;;;-141.84;67.54
15260;BME280;34462;51.368;12.364;2024-02-14T06:12:38;18346.75;;;-141.84;69.45
15260;BME280;34462;51.368;12.364;2024-02-14T06:15:08;18383.31;;;-141.84;70.03
15260;BME280;34462;51.368;12.364;2024-02-14T06:17:36;18379.25;;;-141.84;71.23
15260;BME280;34462;51.368;12.364;2024-02-14T06:20:07;18354.88;;;-141.84;70.26
15260;BME280;34462;51.368;12.364;2024-02-14T06:22:36;18360.97;;;-141.84;70.80
15260;BME280;34462;51.368;12.364;2024-02-14T06:25:16;18316.28;;;-141.84;69.85
15260;BME280;34462;51.368;12.364;2024-02-14T06:27:46;18283.78;;;-141.84;68.84
15260;BME280;34462;51.368;12.364;2024-02-14T06:30:15;18298.00;;;-141.84;68.80
15260;BME280;34462;51.368;12.364;2024-02-14T06:32:44;18273.63;;;-141.84;68.21
15260;BME280;34462;51.368;12.364;2024-02-14T06:35:13;18253.31;;;-141.84;67.09
15260;BME280;34462;51.368;12.364;2024-02-14T06:37:46;18245.19;;;-141.84;66.59
15260;BME280;34462;51.368;12.364;2024-02-14T06:40:26;18257.38;;;-141.84;66.44
15260;BME280;34462;51.368;12.364;2024-02-14T06:42:58;18243.16;;;-141.84;66.35
15260;BME280;34462;51.368;12.364;2024-02-14T06:45:27;18235.00;;;-141.84;65.37
15260;BME280;34462;51.368;12.364;2024-02-14T06:47:56;18265.50;;;-141.84;65.02
15260;BME280;34462;51.368;12.364;2024-02-14T06:50:24;18285.81;;;-141.84;65.25
15260;BME280;34462;51.368;12.364;2024-02-14T06:52:53;18277.69;;;-141.84;65.49
15260;BME280;34462;51.368;12.364;2024-02-14T06:55:21;18251.28;;;-141.84;64.67
15260;BME280;34462;51.368;12.364;2024-02-14T06:57:49;18237.06;;;-141.84;65.13
15260;BME280;34462;51.368;12.364;2024-02-14T07:00:20;18261.44;;;-141.84;64.50
15260;BME280;34462;51.368;12.364;2024-02-14T07:02:49;18289.88;;;-141.84;63.74
15260;BME280;34462;51.368;12.364;2024-02-14T07:05:17;18263.47;;;-141.84;64.20
15260;BME280;34462;51.368;12.364;2024-02-14T07:07:45;18265.50;;;-141.84;63.75
15260;BME280;34462;51.368;12.364;2024-02-14T07:10:13;18267.53;;;-141.84;63.20
15260;BME280;34462;51.368;12.364;2024-02-14T07:12:42;18289.88;;;-141.84;63.94
15260;BME280;34462;51.368;12.364;2024-02-14T07:15:10;18273.63;;;-141.84;63.33
15260;BME280;34462;51.368;12.364;2024-02-14T07:17:40;18298.00;;;-141.84;64.32
15260;BME280;34462;51.368;12.364;2024-02-14T07:20:09;18300.03;;;-141.84;64.48
15260;BME280;34462;51.368;12.364;2024-02-14T07:22:38;18269.56;;;-141.84;63.53
15260;BME280;34462;51.368;12.364;2024-02-14T07:25:07;18279.72;;;-141.84;64.27
15260;BME280;34462;51.368;12.364;2024-02-14T07:27:37;18289.88;;;-141.84;64.29
15260;BME280;34462;51.368;12.364;2024-02-14T07:30:08;18251.28;;;-141.84;64.76
15260;BME280;34462;51.368;12.364;2024-02-14T07:32:38;18326.44;;;-141.84;63.91
15260;BME280;34462;51.368;12.364;2024-02-14T07:35:07;18237.06;;;-141.84;64.08
15260;BME280;34462;51.368;12.364;2024-02-14T07:37:36;18298.00;;;-141.84;64.60
15260;BME280;34462;51.368;12.364;2024-02-14T07:40:06;18293.94;;;-141.84;64.13
15260;BME280;34462;51.368;12.364;2024-02-14T07:42:34;18257.38;;;-141.84;63.24
15260;BME280;34462;51.368;12.364;2024-02-14T07:45:03;18310.19;;;-141.84;63.68
15260;BME280;34462;51.368;12.364;2024-02-14T07:47:32;18298.00;;;-141.84;63.00
15260;BME280;34462;51.368;12.364;2024-02-14T07:50:02;18267.53;;;-141.84;63.57
15260;BME280;34462;51.368;12.364;2024-02-14T07:52:30;18283.78;;;-141.84;63.87
15260;BME280;34462;51.368;12.364;2024-02-14T07:55:02;18316.28;;;-141.84;64.33
15260;BME280;34462;51.368;12.364;2024-02-14T07:57:31;18285.81;;;-141.84;64.05
15260;BME280;34462;51.368;12.364;2024-02-14T07:59:59;18293.94;;;-141.84;63.43
15260;BME280;34462;51.368;12.364;2024-02-14T08:02:27;18285.81;;;-141.84;63.99
15260;BME280;34462;51.368;12.364;2024-02-14T08:04:56;18267.53;;;-141.84;63.11
15260;BME280;34462;51.368;12.364;2024-02-14T08:07:26;18300.03;;;-141.84;63.35
15260;BME280;34462;51.368;12.364;2024-02-14T08:09:54;18287.84;;;-141.84;62.55
15260;BME280;34462;51.368;12.364;2024-02-14T08:12:24;18312.22;;;-141.84;60.22
15260;BME280;34462;51.368;12.364;2024-02-14T08:14:52;18330.50;;;-141.84;60.40
15260;BME280;34462;51.368;12.364;2024-02-14T08:17:21;18363.00;;;-141.84;59.32
15260;BME280;34462;51.368;12.364;2024-02-14T08:19:49;18312.22;;;-141.84;59.57
15260;BME280;34462;51.368;12.364;2024-02-14T08:22:18;18342.69;;;-141.84;58.40
15260;BME280;34462;51.368;12.364;2024-02-14T08:24:49;18358.94;;;-141.84;58.56
15260;BME280;34462;51.368;12.364;2024-02-14T08:27:17;18342.69;;;-141.84;58.79
15260;BME280;34462;51.368;12.364;2024-02-14T08:29:45;18367.06;;;-141.84;58.47
15260;BME280;34462;51.368;12.364;2024-02-14T08:32:13;18377.22;;;-141.84;58.16
15260;BME280;34462;51.368;12.364;2024-02-14T08:34:42;18365.03;;;-141.84;58.55
15260;BME280;34462;51.368;12.364;2024-02-14T08:37:10;18363.00;;;-141.84;59.06
15260;BME280;34462;51.368;12.364;2024-02-14T08:39:39;18411.75;;;-141.84;59.13
15260;BME280;34462;51.368;12.364;2024-02-14T08:42:09;18367.06;;;-141.84;60.01
15260;BME280;34462;51.368;12.364;2024-02-14T08:44:37;18326.44;;;-141.84;60.84
15260;BME280;34462;51.368;12.364;2024-02-14T08:47:07;18373.16;;;-141.84;60.38
15260;BME280;34462;51.368;12.364;2024-02-14T08:49:35;18352.84;;;-141.84;61.33
15260;BME280;34462;51.368;12.364;2024-02-14T08:52:05;18369.09;;;-141.84;60.38
15260;BME280;34462;51.368;12.364;2024-02-14T08:54:33;18381.28;;;-141.84;60.43
15260;BME280;34462;51.368;12.364;2024-02-14T08:57:02;18385.34;;;-141.84;59.97
15260;BME280;34462;51.368;12.364;2024-02-14T08:59:32;18356.91;;;-141.84;59.63
15260;BME280;34462;51.368;12.364;2024-02-14T09:02:00;18399.56;;;-141.84;59.55
15260;BME280;34462;51.368;12.364;2024-02-14T09:04:30;18397.53;;;-141.84;59.62
15260;BME280;34462;51.368;12.364;2024-02-14T09:06:58;18415.81;;;-141.84;58.96
15260;BME280;34462;51.368;12.364;2024-02-14T09:09:27;18413.78;;;-141.84;58.94
15260;BME280;34462;51.368;12.364;2024-02-14T09:11:55;18397.53;;;-141.84;59.39
15260;BME280;34462;51.368;12.364;2024-02-14T09:14:23;18419.88;;;-141.84;58.99
15260;BME280;34462;51.368;12.364;2024-02-14T09:16:54;18417.84;;;-141.84;59.19
15260;BME280;34462;51.368;12.364;2024-02-14T09:19:23;18401.59;;;-141.84;60.03
15260;BME280;34462;51.368;12.364;2024-02-14T09:21:52;18411.75;;;-141.84;59.85
15260;BME280;34462;51.368;12.364;2024-02-14T09:24:20;18407.69;;;-141.84;59.99
15260;BME280;34462;51.368;12.364;2024-02-14T09:26:48;18415.81;;;-141.84;59.55
15260;BME280;34462;51.368;12.364;2024-02-14T09:29:17;18391.44;;;-141.84;59.54
15260;BME280;34462;51.368;12.364;2024-02-14T09:31:45;18421.91;;;-141.84;59.29
15260;BME280;34462;51.368;12.364;2024-02-14T09:34:16;18446.31;;;-141.84;59.59
15260;BME280;34462;51.368;12.364;2024-02-14T09:36:48;18421.91;;;-141.84;60.21
15260;BME280;34462;51.368;12.364;2024-02-14T09:39:17;18436.16;;;-141.84;60.51
15260;BME280;34462;51.368;12.364;2024-02-14T09:41:52;18415.81;;;-141.84;60.30
15260;BME280;34462;51.368;12.364;2024-02-14T09:44:21;18436.16;;;-141.84;59.68
15260;BME280;34462;51.368;12.364;2024-02-14T09:46:50;18464.59;;;-141.84;59.61
15260;BME280;34462;51.368;12.364;2024-02-14T09:49:22;18428.03;;;-141.84;59.64
15260;BME280;34462;51.368;12.364;2024-02-14T09:51:53;18454.44;;;-141.84;59.63
15260;BME280;34462;51.368;12.364;2024-02-14T09:54:23;18460.53;;;-141.84;58.29
15260;BME280;34462;51.368;12.364;2024-02-14T09:56:52;18450.38;;;-141.84;58.94
15260;BME280;34462;51.368;12.364;2024-02-14T09:59:23;18425.97;;;-141.84;59.27
15260;BME280;34462;51.368;12.364;2024-02-14T10:01:51;18468.66;;;-141.84;59.13
15260;BME280;34462;51.368;12.364;2024-02-14T10:04:21;18478.81;;;-141.84;57.78
15260;BME280;34462;51.368;12.364;2024-02-14T10:06:53;18497.09;;;-141.84;57.07
15260;BME280;34462;51.368;12.364;2024-02-14T10:09:22;18501.16;;;-141.84;56.86
15260;BME280;34462;51.368;12.364;2024-02-14T10:11:51;18501.16;;;-141.84;57.71
15260;BME280;34462;51.368;12.364;2024-02-14T10:14:19;18501.16;;;-141.84;58.48
15260;BME280;34462;51.368;12.364;2024-02-14T10:16:48;18491.00;;;-141.84;58.28
15260;BME280;34462;51.368;12.364;2024-02-14T10:19:16;18488.97;;;-141.84;58.87
15260;BME280;34462;51.368;12.364;2024-02-14T10:21:57;18493.03;;;-141.84;59.24
15260;BME280;34462;51.368;12.364;2024-02-14T10:24:26;18488.97;;;-141.84;58.44
15260;BME280;34462;51.368;12.364;2024-02-14T10:26:55;18491.00;;;-141.84;58.85
15260;BME280;34462;51.368;12.364;2024-02-14T10:29:25;18456.47;;;-141.84;61.29
15260;BME280;34462;51.368;12.364;2024-02-14T10:31:53;18513.34;;;-141.84;63.91
15260;BME280;34462;51.368;12.364;2024-02-14T10:34:25;18531.63;;;-141.84;66.40
15260;BME280;34462;51.368;12.364;2024-02-14T10:36:57;18679.94;;;-141.84;69.59
15260;BME280;34462;51.368;12.364;2024-02-14T10:39:27;18870.94;;;-141.84;71.65
15260;BME280;34462;51.368;12.364;2024-02-14T10:41:58;18881.09;;;-141.84;72.07
15260;BME280;34462;51.368;12.364;2024-02-14T10:44:27;18834.38;;;-141.84;72.01
15260;BME280;34462;51.368;12.364;2024-02-14T10:46:56;18927.84;;;-141.84;72.57
15260;BME280;34462;51.368;12.364;2024-02-14T10:49:28;19257.00;;;-141.84;73.96
15260;BME280;34462;51.368;12.364;2024-02-14T10:52:00;19303.75;;;-141.84;74.10
15260;BME280;34462;51.368;12.364;2024-02-14T10:54:32;19490.72;;;-141.84;74.56
15260;BME280;34462;51.368;12.364;2024-02-14T10:57:05;20197.97;;;-141.84;75.66
15260;BME280;34462;51.368;12.364;2024-02-14T10:59:42;21474.63;;;-141.84;76.57
15260;BME280;34462;51.368;12.364;2024-02-14T11:02:13;23927.47;;;-141.84;77.60
15260;BME280;34462;51.368;12.364;2024-02-14T11:04:42;27222.72;;;-141.84;78.26
15260;BME280;34462;51.368;12.364;2024-02-14T11:07:12;25815.94;;;-141.84;78.22
15260;BME280;34462;51.368;12.364;2024-02-14T11:09:42;23701.66;;;-141.84;77.42
15260;BME280;34462;51.368;12.364;2024-02-14T11:12:11;26713.69;;;-141.84;78.31
15260;BME280;34462;51.368;12.364;2024-02-14T11:14:42;23229.69;;;-141.84;77.30
15260;BME280;34462;51.368;12.364;2024-02-14T11:17:13;23872.53;;;-141.84;77.32
15260;BME280;34462;51.368;12.364;2024-02-14T11:19:41;22818.81;;;-141.84;77.07
15260;BME280;34462;51.368;12.364;2024-02-14T11:22:12;21405.50;;;-141.84;76.53
15260;BME280;34462;51.368;12.364;2024-02-14T11:24:41;25970.66;;;-141.84;77.91
15260;BME280;34462;51.368;12.364;2024-02-14T11:27:13;28691.13;;;-141.84;78.65
15260;BME280;34462;51.368;12.364;2024-02-14T11:30:00;24393.41;;;-141.84;77.05
15260;BME280;34462;51.368;12.364;2024-02-14T11:32:32;22391.72;;;-141.84;76.66
15260;BME280;34462;51.368;12.364;2024-02-14T11:35:00;19750.84;;;-141.84;74.72
15260;BME280;34462;51.368;12.364;2024-02-14T11:37:30;19096.47;;;-141.84;73.24
15260;BME280;34462;51.368;12.364;2024-02-14T11:40:00;18722.63;;;-141.84;71.00
15260;BME280;34462;51.368;12.364;2024-02-14T11:42:29;18647.44;;;-141.84;70.18
15260;BME280;34462;51.368;12.364;2024-02-14T11:44:58;18560.06;;;-141.84;67.79
15260;BME280;34462;51.368;12.364;2024-02-14T11:47:26;18513.34;;;-141.84;67.13
15260;BME280;34462;51.368;12.364;2024-02-14T11:49:56;18521.47;;;-141.84;67.03
15260;BME280;34462;51.368;12.364;2024-02-14T11:52:25;18519.44;;;-141.84;66.15
15260;BME280;34462;51.368;12.364;2024-02-14T11:54:58;18543.81;;;-141.84;65.69
15260;BME280;34462;51.368;12.364;2024-02-14T11:57:26;18556.00;;;-141.84;67.24
15260;BME280;34462;51.368;12.364;2024-02-14T11:59:58;18625.09;;;-141.84;69.30
15260;BME280;34462;51.368;12.364;2024-02-14T12:02:27;18653.53;;;-141.84;69.78
15260;BME280;34462;51.368;12.364;2024-02-14T12:04:56;18616.97;;;-141.84;68.96
15260;BME280;34462;51.368;12.364;2024-02-14T12:07:26;18608.84;;;-141.84;68.83
15260;BME280;34462;51.368;12.364;2024-02-14T12:09:55;18576.31;;;-141.84;68.02
15260;BME280;34462;51.368;12.364;2024-02-14T12:12:25;18547.88;;;-141.84;66.79
15260;BME280;34462;51.368;12.364;2024-02-14T12:14:53;18570.22;;;-141.84;68.01
15260;BME280;34462;51.368;12.364;2024-02-14T12:17:22;18572.25;;;-141.84;66.52
15260;BME280;34462;51.368;12.364;2024-02-14T12:19:50;18549.91;;;-141.84;65.72
15260;BME280;34462;51.368;12.364;2024-02-14T12:22:20;18507.25;;;-141.84;64.00
15260;BME280;34462;51.368;12.364;2024-02-14T12:24:48;18517.41;;;-141.84;63.23
15260;BME280;34462;51.368;12.364;2024-02-14T12:27:17;18509.28;;;-141.84;62.21
15260;BME280;34462;51.368;12.364;2024-02-14T12:29:48;18535.69;;;-141.84;64.25
15260;BME280;34462;51.368;12.364;2024-02-14T12:32:17;18543.81;;;-141.84;63.28
15260;BME280;34462;51.368;12.364;2024-02-14T12:34:46;18523.50;;;-141.84;64.26
15260;BME280;34462;51.368;12.364;2024-02-14T12:37:14;18570.22;;;-141.84;63.82
15260;BME280;34462;51.368;12.364;2024-02-14T12:39:44;18608.84;;;-141.84;62.66
15260;BME280;34462;51.368;12.364;2024-02-14T12:42:12;18568.19;;;-141.84;61.50